sensor_id;sensor_type;location;lat;lon;timestamp;temperature;humidity
2523;DHT22;1272;53.332;9.860;2024-03-02T00:02:12;7.60;1.00
2523;DHT22;1272;53.332;9.860;2024-03-02T00:04:38;7.60;1.90
2523;DHT22;1272;53.332;9.860;2024-03-02T00:07:04;7.60;1.00
2523;DHT22;1272;53.332;9.860;2024-03-02T00:09:30;7.60;11.80
2523;DHT22;1272;53.332;9.860;2024-03-02T00:11:55;7.60;99.90
2523;DHT22;1272;53.332;9.860;2024-03-02T00:14:22;7.60;99.90
2523;DHT22;1272;53.332;9.860;2024-03-02T00:16:50;7.60;99.90
2523;DHT22;1272;53.332;9.860;2024-03-02T00:19:17;7.60;99.90
2523;DHT22;1272;53.332;9.860;2024-03-02T00:21:44;7.60;99.90
2523;DHT22;1272;53.332;9.860;2024-03-02T00:24:32;7.60;99.90
2523;DHT22;1272;53.332;9.860;2024-03-02T00:26:59;7.60;99.90
2523;DHT22;1272;53.332;9.860;2024-03-02T00:29:25;7.60;99.90
2523;DHT22;1272;53.332;9.860;2024-03-02T00:31:51;7.70;99.90
2523;DHT22;1272;53.332;9.860;2024-03-02T00:34:17;7.70;1.00
2523;DHT22;1272;53.332;9.860;2024-03-02T00:36:43;7.70;1.00
2523;DHT22;1272;53.332;9.860;2024-03-02T00:39:12;7.70;99.90
2523;DHT22;1272;53.332;9.860;2024-03-02T00:41:41;7.70;1.00
2523;DHT22;1272;53.332;9.860;2024-03-02T00:44:10;7.70;1.00
2523;DHT22;1272;53.332;9.860;2024-03-02T00:46:41;7.70;1.00
2523;DHT22;1272;53.332;9.860;2024-03-02T00:49:24;7.70;1.00
2523;DHT22;1272;53.332;9.860;2024-03-02T00:51:51;7.70;99.90
2523;DHT22;1272;53.332;9.860;2024-03-02T00:54:25;7.70;99.90
2523;DHT22;1272;53.332;9.860;2024-03-02T00:56:52;7.70;1.00
2523;DHT22;1272;53.332;9.860;2024-03-02T00:59:21;7.70;1.00
2523;DHT22;1272;53.332;9.860;2024-03-02T01:01:48;7.70;1.00
2523;DHT22;1272;53.332;9.860;2024-03-02T01:04:14;7.70;1.00
2523;DHT22;1272;53.332;9.860;2024-03-02T01:06:42;7.70;1.00
2523;DHT22;1272;53.332;9.860;2024-03-02T01:09:07;7.70;1.00
2523;DHT22;1272;53.332;9.860;2024-03-02T01:11:33;7.70;1.00
2523;DHT22;1272;53.332;9.860;2024-03-02T01:13:59;7.70;1.00
2523;DHT22;1272;53.332;9.860;2024-03-02T01:19:00;7.70;14.00
2523;DHT22;1272;53.332;9.860;2024-03-02T01:21:26;7.70;1.00
2523;DHT22;1272;53.332;9.860;2024-03-02T01:23:52;7.70;1.00
2523;DHT22;1272;53.332;9.860;2024-03-02T01:26:17;7.70;1.00
2523;DHT22;1272;53.332;9.860;2024-03-02T01:28:43;7.70;1.00
2523;DHT22;1272;53.332;9.860;2024-03-02T01:31:08;7.70;1.00
2523;DHT22;1272;53.332;9.860;2024-03-02T01:33:34;7.70;1.00
2523;DHT22;1272;53.332;9.860;2024-03-02T01:36:00;7.70;1.00
2523;DHT22;1272;53.332;9.860;2024-03-02T01:38:25;7.70;1.00
2523;DHT22;1272;53.332;9.860;2024-03-02T01:40:51;7.70;1.00
2523;DHT22;1272;53.332;9.860;2024-03-02T01:43:17;7.70;1.00
2523;DHT22;1272;53.332;9.860;2024-03-02T01:45:42;7.70;2.60
2523;DHT22;1272;53.332;9.860;2024-03-02T01:48:08;7.70;10.80
2523;DHT22;1272;53.332;9.860;2024-03-02T01:50:35;7.70;41.90
2523;DHT22;1272;53.332;9.860;2024-03-02T01:53:01;7.70;99.90
2523;DHT22;1272;53.332;9.860;2024-03-02T01:55:30;7.70;99.90
2523;DHT22;1272;53.332;9.860;2024-03-02T01:57:56;7.70;99.90
2523;DHT22;1272;53.332;9.860;2024-03-02T02:00:22;7.70;99.90
2523;DHT22;1272;53.332;9.860;2024-03-02T02:02:51;7.70;99.90
2523;DHT22;1272;53.332;9.860;2024-03-02T02:05:17;7.60;99.90
2523;DHT22;1272;53.332;9.860;2024-03-02T02:07:43;7.60;99.90
2523;DHT22;1272;53.332;9.860;2024-03-02T02:10:10;7.60;1.00
2523;DHT22;1272;53.332;9.860;2024-03-02T02:12:36;7.60;1.00
2523;DHT22;1272;53.332;9.860;2024-03-02T02:15:03;7.60;1.00
2523;DHT22;1272;53.332;9.860;2024-03-02T02:17:28;7.60;1.00
2523;DHT22;1272;53.332;9.860;2024-03-02T02:19:54;7.60;1.00
2523;DHT22;1272;53.332;9.860;2024-03-02T02:22:20;7.60;1.00
2523;DHT22;1272;53.332;9.860;2024-03-02T02:24:45;7.60;1.00
2523;DHT22;1272;53.332;9.860;2024-03-02T02:27:11;7.50;1.00
2523;DHT22;1272;53.332;9.860;2024-03-02T02:29:40;7.50;11.00
2523;DHT22;1272;53.332;9.860;2024-03-02T02:32:05;7.50;40.40
2523;DHT22;1272;53.332;9.860;2024-03-02T02:34:31;7.50;99.90
2523;DHT22;1272;53.332;9.860;2024-03-02T02:36:57;7.50;99.90
2523;DHT22;1272;53.332;9.860;2024-03-02T02:39:23;7.50;99.90
2523;DHT22;1272;53.332;9.860;2024-03-02T02:41:49;7.50;99.90
2523;DHT22;1272;53.332;9.860;2024-03-02T02:44:14;7.50;99.90
2523;DHT22;1272;53.332;9.860;2024-03-02T02:46:41;7.50;99.90
2523;DHT22;1272;53.332;9.860;2024-03-02T02:49:07;7.50;99.90
2523;DHT22;1272;53.332;9.860;2024-03-02T02:51:33;7.50;99.90
2523;DHT22;1272;53.332;9.860;2024-03-02T02:53:58;7.50;99.90
2523;DHT22;1272;53.332;9.860;2024-03-02T02:56:24;7.50;99.90
2523;DHT22;1272;53.332;9.860;2024-03-02T02:58:50;7.50;1.00
2523;DHT22;1272;53.332;9.860;2024-03-02T03:01:16;7.50;1.00
2523;DHT22;1272;53.332;9.860;2024-03-02T03:03:45;7.40;1.00
2523;DHT22;1272;53.332;9.860;2024-03-02T03:06:11;7.40;1.00
2523;DHT22;1272;53.332;9.860;2024-03-02T03:08:37;7.40;1.00
2523;DHT22;1272;53.332;9.860;2024-03-02T03:11:04;7.40;1.00
2523;DHT22;1272;53.332;9.860;2024-03-02T03:13:33;7.40;1.00
2523;DHT22;1272;53.332;9.860;2024-03-02T03:15:59;7.40;1.00
2523;DHT22;1272;53.332;9.860;2024-03-02T03:18:25;7.40;1.00
2523;DHT22;1272;53.332;9.860;2024-03-02T03:20:50;7.40;1.00
2523;DHT22;1272;53.332;9.860;2024-03-02T03:23:16;7.40;1.00
2523;DHT22;1272;53.332;9.860;2024-03-02T03:25:43;7.40;1.00
2523;DHT22;1272;53.332;9.860;2024-03-02T03:28:09;7.40;1.00
2523;DHT22;1272;53.332;9.860;2024-03-02T03:30:36;7.40;1.00
2523;DHT22;1272;53.332;9.860;2024-03-02T03:33:02;7.40;99.90
2523;DHT22;1272;53.332;9.860;2024-03-02T03:35:28;7.40;99.90
2523;DHT22;1272;53.332;9.860;2024-03-02T03:37:54;7.50;1.00
2523;DHT22;1272;53.332;9.860;2024-03-02T03:40:19;7.50;99.90
2523;DHT22;1272;53.332;9.860;2024-03-02T03:42:45;7.50;1.00
2523;DHT22;1272;53.332;9.860;2024-03-02T03:45:11;7.50;1.00
2523;DHT22;1272;53.332;9.860;2024-03-02T03:47:36;7.50;1.00
2523;DHT22;1272;53.332;9.860;2024-03-02T03:50:02;7.50;1.00
2523;DHT22;1272;53.332;9.860;2024-03-02T03:52:32;7.50;1.00
2523;DHT22;1272;53.332;9.860;2024-03-02T03:54:58;7.50;1.00
2523;DHT22;1272;53.332;9.860;2024-03-02T03:57:23;7.50;99.90
2523;DHT22;1272;53.332;9.860;2024-03-02T03:59:49;7.50;99.90
2523;DHT22;1272;53.332;9.860;2024-03-02T04:02:14;7.50;99.90
2523;DHT22;1272;53.332;9.860;2024-03-02T04:04:40;7.60;99.90
2523;DHT22;1272;53.332;9.860;2024-03-02T04:07:06;7.60;91.40
2523;DHT22;1272;53.332;9.860;2024-03-02T04:09:31;7.60;1.00
2523;DHT22;1272;53.332;9.860;2024-03-02T04:11:58;7.50;1.00
2523;DHT22;1272;53.332;9.860;2024-03-02T04:14:23;7.50;1.00
2523;DHT22;1272;53.332;9.860;2024-03-02T04:16:49;7.50;21.10
2523;DHT22;1272;53.332;9.860;2024-03-02T04:19:15;7.50;79.50
2523;DHT22;1272;53.332;9.860;2024-03-02T04:21:40;7.60;49.50
2523;DHT22;1272;53.332;9.860;2024-03-02T04:24:06;7.60;44.00
2523;DHT22;1272;53.332;9.860;2024-03-02T04:26:32;7.60;1.00
2523;DHT22;1272;53.332;9.860;2024-03-02T04:28:57;7.60;1.00
2523;DHT22;1272;53.332;9.860;2024-03-02T04:31:23;7.60;1.00
2523;DHT22;1272;53.332;9.860;2024-03-02T04:33:49;7.60;1.00
2523;DHT22;1272;53.332;9.860;2024-03-02T04:36:14;7.60;99.90
2523;DHT22;1272;53.332;9.860;2024-03-02T04:38:40;7.60;99.90
2523;DHT22;1272;53.332;9.860;2024-03-02T04:41:06;7.60;99.90
2523;DHT22;1272;53.332;9.860;2024-03-02T04:43:32;7.60;99.90
2523;DHT22;1272;53.332;9.860;2024-03-02T04:45:59;7.60;99.90
2523;DHT22;1272;53.332;9.860;2024-03-02T04:48:24;7.60;83.80
2523;DHT22;1272;53.332;9.860;2024-03-02T04:50:50;7.60;1.30
2523;DHT22;1272;53.332;9.860;2024-03-02T04:53:16;7.50;91.60
2523;DHT22;1272;53.332;9.860;2024-03-02T04:55:42;7.60;99.90
2523;DHT22;1272;53.332;9.860;2024-03-02T04:58:07;7.60;1.00
2523;DHT22;1272;53.332;9.860;2024-03-02T05:00:34;7.60;1.00
2523;DHT22;1272;53.332;9.860;2024-03-02T05:03:00;7.60;1.00
2523;DHT22;1272;53.332;9.860;2024-03-02T05:05:25;7.60;1.00
2523;DHT22;1272;53.332;9.860;2024-03-02T05:07:52;7.60;1.00
2523;DHT22;1272;53.332;9.860;2024-03-02T05:10:17;7.60;99.90
2523;DHT22;1272;53.332;9.860;2024-03-02T05:12:43;7.60;99.90
2523;DHT22;1272;53.332;9.860;2024-03-02T05:15:10;7.60;99.90
2523;DHT22;1272;53.332;9.860;2024-03-02T05:17:39;7.60;99.90
2523;DHT22;1272;53.332;9.860;2024-03-02T05:20:08;7.60;99.90
2523;DHT22;1272;53.332;9.860;2024-03-02T05:22:34;7.50;99.90
2523;DHT22;1272;53.332;9.860;2024-03-02T05:25:01;7.50;99.90
2523;DHT22;1272;53.332;9.860;2024-03-02T05:27:27;7.50;99.90
2523;DHT22;1272;53.332;9.860;2024-03-02T05:29:53;7.50;99.90
2523;DHT22;1272;53.332;9.860;2024-03-02T05:32:19;7.50;99.90
2523;DHT22;1272;53.332;9.860;2024-03-02T05:34:44;7.40;99.90
2523;DHT22;1272;53.332;9.860;2024-03-02T05:37:10;7.40;99.90
2523;DHT22;1272;53.332;9.860;2024-03-02T05:39:36;7.40;47.70
2523;DHT22;1272;53.332;9.860;2024-03-02T05:42:02;7.40;34.90
2523;DHT22;1272;53.332;9.860;2024-03-02T05:44:28;7.30;35.80
2523;DHT22;1272;53.332;9.860;2024-03-02T05:46:54;7.30;1.00
2523;DHT22;1272;53.332;9.860;2024-03-02T05:49:20;7.30;1.00
2523;DHT22;1272;53.332;9.860;2024-03-02T05:51:46;7.20;1.00
2523;DHT22;1272;53.332;9.860;2024-03-02T05:54:12;7.20;1.00
2523;DHT22;1272;53.332;9.860;2024-03-02T05:56:37;7.10;1.00
2523;DHT22;1272;53.332;9.860;2024-03-02T05:59:03;7.00;1.00
2523;DHT22;1272;53.332;9.860;2024-03-02T06:01:42;7.00;1.00
2523;DHT22;1272;53.332;9.860;2024-03-02T06:04:09;6.90;99.90
2523;DHT22;1272;53.332;9.860;2024-03-02T06:06:35;6.90;99.90
2523;DHT22;1272;53.332;9.860;2024-03-02T06:09:04;6.80;99.90
2523;DHT22;1272;53.332;9.860;2024-03-02T06:11:40;6.70;99.90
2523;DHT22;1272;53.332;9.860;2024-03-02T06:14:07;6.60;99.90
2523;DHT22;1272;53.332;9.860;2024-03-02T06:16:33;6.50;99.90
2523;DHT22;1272;53.332;9.860;2024-03-02T06:18:59;6.50;99.90
2523;DHT22;1272;53.332;9.860;2024-03-02T06:21:25;6.50;99.90
2523;DHT22;1272;53.332;9.860;2024-03-02T06:23:51;6.50;1.00
2523;DHT22;1272;53.332;9.860;2024-03-02T06:26:17;6.50;1.00
2523;DHT22;1272;53.332;9.860;2024-03-02T06:28:43;6.40;1.00
2523;DHT22;1272;53.332;9.860;2024-03-02T06:31:09;6.40;1.00
2523;DHT22;1272;53.332;9.860;2024-03-02T06:33:35;6.40;1.00
2523;DHT22;1272;53.332;9.860;2024-03-02T06:36:01;6.40;1.00
2523;DHT22;1272;53.332;9.860;2024-03-02T06:38:27;6.40;1.00
2523;DHT22;1272;53.332;9.860;2024-03-02T06:40:53;6.30;1.00
2523;DHT22;1272;53.332;9.860;2024-03-02T06:43:19;6.30;99.90
2523;DHT22;1272;53.332;9.860;2024-03-02T06:45:49;6.30;99.90
2523;DHT22;1272;53.332;9.860;2024-03-02T06:48:15;6.40;99.90
2523;DHT22;1272;53.332;9.860;2024-03-02T06:50:48;6.40;99.90
2523;DHT22;1272;53.332;9.860;2024-03-02T06:53:14;6.50;99.90
2523;DHT22;1272;53.332;9.860;2024-03-02T06:55:46;6.50;99.90
2523;DHT22;1272;53.332;9.860;2024-03-02T06:58:12;6.50;1.00
2523;DHT22;1272;53.332;9.860;2024-03-02T07:00:40;6.60;99.90
2523;DHT22;1272;53.332;9.860;2024-03-02T07:03:06;6.60;99.90
2523;DHT22;1272;53.332;9.860;2024-03-02T07:05:32;6.60;99.90
2523;DHT22;1272;53.332;9.860;2024-03-02T07:07:57;6.60;1.00
2523;DHT22;1272;53.332;9.860;2024-03-02T07:10:23;6.60;1.00
2523;DHT22;1272;53.332;9.860;2024-03-02T07:12:49;6.60;1.00
2523;DHT22;1272;53.332;9.860;2024-03-02T07:15:15;6.70;1.00
2523;DHT22;1272;53.332;9.860;2024-03-02T07:17:52;6.70;1.00
2523;DHT22;1272;53.332;9.860;2024-03-02T07:20:18;6.70;19.00
2523;DHT22;1272;53.332;9.860;2024-03-02T07:22:43;6.70;47.60
2523;DHT22;1272;53.332;9.860;2024-03-02T07:25:09;6.80;99.90
2523;DHT22;1272;53.332;9.860;2024-03-02T07:27:35;6.90;99.90
2523;DHT22;1272;53.332;9.860;2024-03-02T07:30:02;6.90;99.90
2523;DHT22;1272;53.332;9.860;2024-03-02T07:32:28;6.90;99.90
2523;DHT22;1272;53.332;9.860;2024-03-02T07:34:54;7.00;99.90
2523;DHT22;1272;53.332;9.860;2024-03-02T07:37:21;7.10;99.90
2523;DHT22;1272;53.332;9.860;2024-03-02T07:39:47;7.10;99.90
2523;DHT22;1272;53.332;9.860;2024-03-02T07:42:13;7.10;99.90
2523;DHT22;1272;53.332;9.860;2024-03-02T07:44:38;7.20;99.90
2523;DHT22;1272;53.332;9.860;2024-03-02T07:47:04;7.30;1.00
2523;DHT22;1272;53.332;9.860;2024-03-02T07:49:30;7.30;99.90
2523;DHT22;1272;53.332;9.860;2024-03-02T07:51:55;7.40;99.90
2523;DHT22;1272;53.332;9.860;2024-03-02T07:54:21;7.40;99.90
2523;DHT22;1272;53.332;9.860;2024-03-02T07:56:47;7.40;99.90
2523;DHT22;1272;53.332;9.860;2024-03-02T07:59:13;7.40;99.90
2523;DHT22;1272;53.332;9.860;2024-03-02T08:01:38;7.50;99.90
2523;DHT22;1272;53.332;9.860;2024-03-02T08:04:04;7.50;42.30
2523;DHT22;1272;53.332;9.860;2024-03-02T08:06:30;7.50;34.00
2523;DHT22;1272;53.332;9.860;2024-03-02T08:09:00;7.50;58.80
2523;DHT22;1272;53.332;9.860;2024-03-02T08:11:26;7.60;99.90
2523;DHT22;1272;53.332;9.860;2024-03-02T08:13:56;7.60;1.00
2523;DHT22;1272;53.332;9.860;2024-03-02T08:16:25;7.70;99.90
2523;DHT22;1272;53.332;9.860;2024-03-02T08:18:51;7.70;99.90
2523;DHT22;1272;53.332;9.860;2024-03-02T08:21:17;7.70;99.90
2523;DHT22;1272;53.332;9.860;2024-03-02T08:23:43;7.70;35.70
2523;DHT22;1272;53.332;9.860;2024-03-02T08:26:09;7.70;99.90
2523;DHT22;1272;53.332;9.860;2024-03-02T08:28:35;7.70;99.90
2523;DHT22;1272;53.332;9.860;2024-03-02T08:31:06;7.80;99.90
2523;DHT22;1272;53.332;9.860;2024-03-02T08:33:32;7.80;18.80
2523;DHT22;1272;53.332;9.860;2024-03-02T08:35:58;7.90;16.60
2523;DHT22;1272;53.332;9.860;2024-03-02T08:38:24;7.90;1.00
2523;DHT22;1272;53.332;9.860;2024-03-02T08:40:50;7.90;1.00
2523;DHT22;1272;53.332;9.860;2024-03-02T08:43:16;8.00;1.00
2523;DHT22;1272;53.332;9.860;2024-03-02T08:45:42;8.10;1.00
2523;DHT22;1272;53.332;9.860;2024-03-02T08:48:08;8.10;99.90
2523;DHT22;1272;53.332;9.860;2024-03-02T08:50:34;8.20;99.90
2523;DHT22;1272;53.332;9.860;2024-03-02T08:53:00;8.30;99.90
2523;DHT22;1272;53.332;9.860;2024-03-02T08:55:26;8.40;99.90
2523;DHT22;1272;53.332;9.860;2024-03-02T08:57:52;8.50;7.50
2523;DHT22;1272;53.332;9.860;2024-03-02T09:00:18;8.50;1.00
2523;DHT22;1272;53.332;9.860;2024-03-02T09:02:44;8.50;1.00
2523;DHT22;1272;53.332;9.860;2024-03-02T09:05:10;8.60;99.90
2523;DHT22;1272;53.332;9.860;2024-03-02T09:07:36;8.70;99.90
2523;DHT22;1272;53.332;9.860;2024-03-02T09:10:04;8.80;99.90
2523;DHT22;1272;53.332;9.860;2024-03-02T09:12:30;8.90;99.90
2523;DHT22;1272;53.332;9.860;2024-03-02T09:14:56;8.90;99.90
2523;DHT22;1272;53.332;9.860;2024-03-02T09:17:23;9.00;60.50
2523;DHT22;1272;53.332;9.860;2024-03-02T09:19:48;9.00;62.00
2523;DHT22;1272;53.332;9.860;2024-03-02T09:22:16;9.10;5.70
2523;DHT22;1272;53.332;9.860;2024-03-02T09:24:42;9.20;1.00
2523;DHT22;1272;53.332;9.860;2024-03-02T09:27:07;9.30;1.00
2523;DHT22;1272;53.332;9.860;2024-03-02T09:29:33;9.30;1.00
2523;DHT22;1272;53.332;9.860;2024-03-02T09:31:59;9.40;1.00
2523;DHT22;1272;53.332;9.860;2024-03-02T09:34:24;9.50;1.00
2523;DHT22;1272;53.332;9.860;2024-03-02T09:36:51;9.60;99.90
2523;DHT22;1272;53.332;9.860;2024-03-02T09:39:17;9.70;99.90
2523;DHT22;1272;53.332;9.860;2024-03-02T09:41:43;9.80;99.90
2523;DHT22;1272;53.332;9.860;2024-03-02T09:44:10;9.80;99.90
2523;DHT22;1272;53.332;9.860;2024-03-02T09:46:35;10.00;99.90
2523;DHT22;1272;53.332;9.860;2024-03-02T09:49:02;10.00;99.90
2523;DHT22;1272;53.332;9.860;2024-03-02T09:51:28;10.10;99.90
2523;DHT22;1272;53.332;9.860;2024-03-02T09:53:55;10.20;72.30
2523;DHT22;1272;53.332;9.860;2024-03-02T09:56:23;10.30;25.70
2523;DHT22;1272;53.332;9.860;2024-03-02T09:58:49;10.40;31.00
2523;DHT22;1272;53.332;9.860;2024-03-02T10:01:15;10.50;10.00
2523;DHT22;1272;53.332;9.860;2024-03-02T10:03:40;10.60;1.00
2523;DHT22;1272;53.332;9.860;2024-03-02T10:06:26;10.80;1.00
2523;DHT22;1272;53.332;9.860;2024-03-02T10:08:53;10.80;1.00
2523;DHT22;1272;53.332;9.860;2024-03-02T10:11:30;10.90;1.00
2523;DHT22;1272;53.332;9.860;2024-03-02T10:14:10;11.00;1.00
2523;DHT22;1272;53.332;9.860;2024-03-02T10:16:37;11.10;1.00
2523;DHT22;1272;53.332;9.860;2024-03-02T10:19:23;11.10;1.00
2523;DHT22;1272;53.332;9.860;2024-03-02T10:21:50;11.10;1.00
2523;DHT22;1272;53.332;9.860;2024-03-02T10:24:21;11.10;1.00
2523;DHT22;1272;53.332;9.860;2024-03-02T10:26:48;11.20;99.90
2523;DHT22;1272;53.332;9.860;2024-03-02T10:29:14;11.30;99.90
2523;DHT22;1272;53.332;9.860;2024-03-02T10:31:44;11.30;99.90
2523;DHT22;1272;53.332;9.860;2024-03-02T10:34:13;11.40;99.90
2523;DHT22;1272;53.332;9.860;2024-03-02T10:36:43;11.40;99.90
2523;DHT22;1272;53.332;9.860;2024-03-02T10:39:09;11.50;99.90
2523;DHT22;1272;53.332;9.860;2024-03-02T10:41:37;11.60;99.90
2523;DHT22;1272;53.332;9.860;2024-03-02T10:44:04;11.60;99.90
2523;DHT22;1272;53.332;9.860;2024-03-02T10:46:31;11.70;99.90
2523;DHT22;1272;53.332;9.860;2024-03-02T10:48:57;11.70;99.90
2523;DHT22;1272;53.332;9.860;2024-03-02T10:51:28;11.80;99.90
2523;DHT22;1272;53.332;9.860;2024-03-02T10:54:00;11.90;99.90
2523;DHT22;1272;53.332;9.860;2024-03-02T10:56:31;11.90;99.90
2523;DHT22;1272;53.332;9.860;2024-03-02T10:59:27;12.00;99.90
2523;DHT22;1272;53.332;9.860;2024-03-02T11:02:00;12.10;99.90
2523;DHT22;1272;53.332;9.860;2024-03-02T11:04:27;12.30;99.90
2523;DHT22;1272;53.332;9.860;2024-03-02T11:07:00;12.30;99.90
2523;DHT22;1272;53.332;9.860;2024-03-02T11:09:28;12.30;99.90
2523;DHT22;1272;53.332;9.860;2024-03-02T11:15:00;12.30;99.90
2523;DHT22;1272;53.332;9.860;2024-03-02T11:17:26;12.30;99.90
2523;DHT22;1272;53.332;9.860;2024-03-02T11:19:53;12.30;99.90
2523;DHT22;1272;53.332;9.860;2024-03-02T11:22:19;12.30;99.90
2523;DHT22;1272;53.332;9.860;2024-03-02T11:24:51;12.40;99.90
2523;DHT22;1272;53.332;9.860;2024-03-02T11:33:02;12.40;99.90
2523;DHT22;1272;53.332;9.860;2024-03-02T11:35:44;12.40;99.90
2523;DHT22;1272;53.332;9.860;2024-03-02T11:38:14;12.50;99.90
2523;DHT22;1272;53.332;9.860;2024-03-02T11:40:40;12.50;99.90
2523;DHT22;1272;53.332;9.860;2024-03-02T11:43:07;12.60;99.90
2523;DHT22;1272;53.332;9.860;2024-03-02T11:45:36;12.70;99.90
2523;DHT22;1272;53.332;9.860;2024-03-02T11:48:08;12.70;99.90
2523;DHT22;1272;53.332;9.860;2024-03-02T11:50:42;12.70;99.90
2523;DHT22;1272;53.332;9.860;2024-03-02T11:53:11;12.80;99.90
2523;DHT22;1272;53.332;9.860;2024-03-02T11:55:39;12.80;99.90
2523;DHT22;1272;53.332;9.860;2024-03-02T11:58:07;12.80;99.90
2523;DHT22;1272;53.332;9.860;2024-03-02T12:00:32;12.90;99.90
2523;DHT22;1272;53.332;9.860;2024-03-02T12:03:09;12.90;99.90
2523;DHT22;1272;53.332;9.860;2024-03-02T12:05:35;12.80;99.90
2523;DHT22;1272;53.332;9.860;2024-03-02T12:08:03;12.90;99.90
2523;DHT22;1272;53.332;9.860;2024-03-02T12:10:30;12.90;99.90
2523;DHT22;1272;53.332;9.860;2024-03-02T12:13:06;13.00;99.90
2523;DHT22;1272;53.332;9.860;2024-03-02T12:15:37;13.00;99.90
2523;DHT22;1272;53.332;9.860;2024-03-02T12:18:03;13.00;99.90
2523;DHT22;1272;53.332;9.860;2024-03-02T12:20:30;13.00;99.90
2523;DHT22;1272;53.332;9.860;2024-03-02T12:23:02;13.00;99.90
2523;DHT22;1272;53.332;9.860;2024-03-02T12:25:28;12.90;99.90
2523;DHT22;1272;53.332;9.860;2024-03-02T12:27:56;12.90;99.90
2523;DHT22;1272;53.332;9.860;2024-03-02T12:30:24;12.80;99.90
2523;DHT22;1272;53.332;9.860;2024-03-02T12:32:55;12.80;99.90
2523;DHT22;1272;53.332;9.860;2024-03-02T12:35:20;12.90;99.90
2523;DHT22;1272;53.332;9.860;2024-03-02T12:37:48;12.90;99.90
2523;DHT22;1272;53.332;9.860;2024-03-02T12:40:18;12.90;99.90
2523;DHT22;1272;53.332;9.860;2024-03-02T12:42:44;12.90;99.90
2523;DHT22;1272;53.332;9.860;2024-03-02T12:45:11;12.90;99.90
2523;DHT22;1272;53.332;9.860;2024-03-02T12:47:37;12.90;99.90
2523;DHT22;1272;53.332;9.860;2024-03-02T12:50:04;12.80;99.90
2523;DHT22;1272;53.332;9.860;2024-03-02T12:52:31;12.90;99.90
2523;DHT22;1272;53.332;9.860;2024-03-02T12:55:04;12.90;99.90
2523;DHT22;1272;53.332;9.860;2024-03-02T12:57:31;12.80;99.90
2523;DHT22;1272;53.332;9.860;2024-03-02T13:00:05;12.90;99.90
2523;DHT22;1272;53.332;9.860;2024-03-02T13:02:41;12.90;99.90
2523;DHT22;1272;53.332;9.860;2024-03-02T13:05:10;12.90;99.90
2523;DHT22;1272;53.332;9.860;2024-03-02T13:07:37;13.00;99.90
2523;DHT22;1272;53.332;9.860;2024-03-02T13:10:03;13.00;99.90
2523;DHT22;1272;53.332;9.860;2024-03-02T13:12:30;13.10;99.90
2523;DHT22;1272;53.332;9.860;2024-03-02T13:14:58;13.10;99.90
2523;DHT22;1272;53.332;9.860;2024-03-02T13:17:28;13.30;99.90
2523;DHT22;1272;53.332;9.860;2024-03-02T13:19:55;13.40;99.90
2523;DHT22;1272;53.332;9.860;2024-03-02T13:22:21;13.40;98.80
2523;DHT22;1272;53.332;9.860;2024-03-02T13:24:50;13.40;97.10
2523;DHT22;1272;53.332;9.860;2024-03-02T13:27:16;13.50;97.70
2523;DHT22;1272;53.332;9.860;2024-03-02T13:29:45;13.60;97.30
2523;DHT22;1272;53.332;9.860;2024-03-02T13:32:12;13.60;95.60
2523;DHT22;1272;53.332;9.860;2024-03-02T13:34:38;13.70;95.30
2523;DHT22;1272;53.332;9.860;2024-03-02T13:37:04;13.80;94.10
2523;DHT22;1272;53.332;9.860;2024-03-02T13:39:35;14.00;91.00
2523;DHT22;1272;53.332;9.860;2024-03-02T13:42:09;14.10;90.70
2523;DHT22;1272;53.332;9.860;2024-03-02T13:44:36;14.20;88.20
2523;DHT22;1272;53.332;9.860;2024-03-02T13:47:03;14.30;77.10
2523;DHT22;1272;53.332;9.860;2024-03-02T13:49:29;14.40;67.80
2523;DHT22;1272;53.332;9.860;2024-03-02T13:52:06;14.60;65.20
2523;DHT22;1272;53.332;9.860;2024-03-02T13:54:46;14.80;55.80
2523;DHT22;1272;53.332;9.860;2024-03-02T13:57:12;14.80;48.40
2523;DHT22;1272;53.332;9.860;2024-03-02T13:59:39;14.80;43.60
2523;DHT22;1272;53.332;9.860;2024-03-02T14:02:05;14.80;41.40
2523;DHT22;1272;53.332;9.860;2024-03-02T14:04:32;14.90;48.40
2523;DHT22;1272;53.332;9.860;2024-03-02T14:06:59;14.90;36.20
2523;DHT22;1272;53.332;9.860;2024-03-02T14:09:25;14.90;28.50
2523;DHT22;1272;53.332;9.860;2024-03-02T14:11:50;14.80;27.70
2523;DHT22;1272;53.332;9.860;2024-03-02T14:14:20;14.80;24.90
2523;DHT22;1272;53.332;9.860;2024-03-02T14:16:46;14.80;25.40
2523;DHT22;1272;53.332;9.860;2024-03-02T14:19:12;14.90;26.60
2523;DHT22;1272;53.332;9.860;2024-03-02T14:21:38;15.00;24.40
2523;DHT22;1272;53.332;9.860;2024-03-02T14:24:04;15.00;22.30
2523;DHT22;1272;53.332;9.860;2024-03-02T14:26:32;14.90;20.00
2523;DHT22;1272;53.332;9.860;2024-03-02T14:28:58;14.90;17.90
2523;DHT22;1272;53.332;9.860;2024-03-02T14:31:24;14.80;18.40
2523;DHT22;1272;53.332;9.860;2024-03-02T14:33:51;14.70;19.80
2523;DHT22;1272;53.332;9.860;2024-03-02T14:36:18;14.80;16.80
2523;DHT22;1272;53.332;9.860;2024-03-02T14:38:44;14.70;16.60
2523;DHT22;1272;53.332;9.860;2024-03-02T14:41:09;14.70;17.00
2523;DHT22;1272;53.332;9.860;2024-03-02T14:43:36;14.70;16.40
2523;DHT22;1272;53.332;9.860;2024-03-02T14:46:03;14.80;13.30
2523;DHT22;1272;53.332;9.860;2024-03-02T14:48:30;14.80;14.20
2523;DHT22;1272;53.332;9.860;2024-03-02T14:50:55;14.90;11.50
2523;DHT22;1272;53.332;9.860;2024-03-02T14:53:22;15.00;12.80
2523;DHT22;1272;53.332;9.860;2024-03-02T14:55:47;15.00;14.20
2523;DHT22;1272;53.332;9.860;2024-03-02T14:58:13;15.00;12.70
2523;DHT22;1272;53.332;9.860;2024-03-02T15:00:39;15.00;13.50
2523;DHT22;1272;53.332;9.860;2024-03-02T15:03:05;15.10;14.40
2523;DHT22;1272;53.332;9.860;2024-03-02T15:05:34;15.10;10.60
2523;DHT22;1272;53.332;9.860;2024-03-02T15:08:00;15.10;9.10
2523;DHT22;1272;53.332;9.860;2024-03-02T15:10:28;15.00;5.30
2523;DHT22;1272;53.332;9.860;2024-03-02T15:12:53;15.00;3.80
2523;DHT22;1272;53.332;9.860;2024-03-02T15:15:19;14.90;2.80
2523;DHT22;1272;53.332;9.860;2024-03-02T15:17:45;14.80;1.00
2523;DHT22;1272;53.332;9.860;2024-03-02T15:20:11;14.60;1.40
2523;DHT22;1272;53.332;9.860;2024-03-02T15:22:36;14.50;1.00
2523;DHT22;1272;53.332;9.860;2024-03-02T15:25:02;14.50;1.20
2523;DHT22;1272;53.332;9.860;2024-03-02T15:27:28;14.50;1.70
2523;DHT22;1272;53.332;9.860;2024-03-02T15:29:54;14.50;2.80
2523;DHT22;1272;53.332;9.860;2024-03-02T15:32:22;14.40;1.00
2523;DHT22;1272;53.332;9.860;2024-03-02T15:34:48;14.30;2.30
2523;DHT22;1272;53.332;9.860;2024-03-02T15:37:14;14.20;1.00
2523;DHT22;1272;53.332;9.860;2024-03-02T15:39:39;14.20;1.00
2523;DHT22;1272;53.332;9.860;2024-03-02T15:42:06;14.20;1.00
2523;DHT22;1272;53.332;9.860;2024-03-02T15:44:31;14.10;1.00
2523;DHT22;1272;53.332;9.860;2024-03-02T15:46:58;14.00;1.00
2523;DHT22;1272;53.332;9.860;2024-03-02T15:49:24;13.90;1.00
2523;DHT22;1272;53.332;9.860;2024-03-02T15:51:50;13.70;1.00
2523;DHT22;1272;53.332;9.860;2024-03-02T15:54:15;13.60;1.20
2523;DHT22;1272;53.332;9.860;2024-03-02T15:56:41;13.60;1.80
2523;DHT22;1272;53.332;9.860;2024-03-02T15:59:07;13.50;3.60
2523;DHT22;1272;53.332;9.860;2024-03-02T16:01:33;13.50;2.20
2523;DHT22;1272;53.332;9.860;2024-03-02T16:03:58;13.40;3.40
2523;DHT22;1272;53.332;9.860;2024-03-02T16:06:24;13.40;5.50
2523;DHT22;1272;53.332;9.860;2024-03-02T16:08:50;13.30;8.70
2523;DHT22;1272;53.332;9.860;2024-03-02T16:11:21;13.20;11.00
2523;DHT22;1272;53.332;9.860;2024-03-02T16:13:46;13.20;13.30
2523;DHT22;1272;53.332;9.860;2024-03-02T16:16:12;13.20;14.30
2523;DHT22;1272;53.332;9.860;2024-03-02T16:18:38;13.10;19.40
2523;DHT22;1272;53.332;9.860;2024-03-02T16:21:04;13.10;23.70
2523;DHT22;1272;53.332;9.860;2024-03-02T16:23:30;13.10;27.70
2523;DHT22;1272;53.332;9.860;2024-03-02T16:25:55;13.10;28.90
2523;DHT22;1272;53.332;9.860;2024-03-02T16:28:21;13.00;36.10